Time;durP1;ratioP1;P1;durP2;ratioP2;P2;SDS_P1;SDS_P2;PMS_P1;PMS_P2;Temp;Humidity;BMP_temperature;BMP_pressure;BME280_temperature;BME280_humidity;BME280_pressure;Samples;Min_cycle;Max_cycle;Signal;HPM_P1;HPM_P2
2022/05/29 00:01:51;;;;;;;4.45;1.73;;;11.20;99.90;;;;;;4950367;29;20040;-44
2022/05/29 00:04:17;;;;;;;4.38;2.22;;;11.20;99.90;;;;;;4949376;29;20486;-43
2022/05/29 00:06:45;;;;;;;5.07;1.90;;;11.20;99.90;;;;;;4949781;29;20493;-43
2022/05/29 00:09:16;;;;;;;2.67;1.23;;;11.20;99.90;;;;;;4949710;28;20093;-43
2022/05/29 00:11:42;;;;;;;2.08;1.10;;;11.10;99.90;;;;;;4949456;28;20043;-43
2022/05/29 00:14:07;;;;;;;3.47;1.40;;;11.10;99.90;;;;;;4950143;29;20019;-44
2022/05/29 00:16:33;;;;;;;3.85;1.58;;;11.00;99.90;;;;;;4948649;29;20031;-44
2022/05/29 00:18:58;;;;;;;4.60;1.88;;;11.00;99.90;;;;;;4950211;29;20387;-44
2022/05/29 00:21:24;;;;;;;5.22;1.52;;;11.00;99.90;;;;;;4949525;29;20050;-43
2022/05/29 00:23:50;;;;;;;3.65;1.40;;;11.00;99.90;;;;;;4949695;28;20023;-43
2022/05/29 00:26:19;;;;;;;3.97;1.90;;;10.90;99.90;;;;;;4950004;28;20526;-43
2022/05/29 00:28:45;;;;;;;4.50;1.63;;;10.90;99.90;;;;;;4949158;28;20039;-43
2022/05/29 00:31:12;;;;;;;4.35;1.60;;;10.90;99.90;;;;;;4948795;29;20703;-43
2022/05/29 00:33:39;;;;;;;3.67;1.70;;;10.90;99.90;;;;;;4949034;28;20026;-43
2022/05/29 00:36:06;;;;;;;5.10;1.50;;;11.00;99.90;;;;;;4949789;29;20034;-43
2022/05/29 00:38:37;;;;;;;3.33;1.52;;;11.00;99.90;;;;;;4948253;29;20114;-42
2022/05/29 00:41:17;;;;;;;1.58;1.00;;;11.10;99.90;;;;;;4949191;28;20043;-43
2022/05/29 00:43:44;;;;;;;3.40;1.50;;;11.10;99.90;;;;;;4949731;28;20035;-43
2022/05/29 00:46:12;;;;;;;5.20;1.60;;;11.00;99.90;;;;;;4948831;28;20039;-43
2022/05/29 00:48:38;;;;;;;3.28;1.50;;;11.00;99.90;;;;;;4949772;28;20336;-43
2022/05/29 00:51:09;;;;;;;2.90;1.52;;;11.00;99.90;;;;;;4949606;28;20403;-43
2022/05/29 00:53:37;;;;;;;4.00;1.77;;;11.00;99.90;;;;;;4947778;28;20106;-43
2022/05/29 00:56:07;;;;;;;5.78;1.85;;;11.00;99.90;;;;;;4950125;28;20031;-43
2022/05/29 00:58:33;;;;;;;3.72;1.60;;;11.00;99.90;;;;;;4948112;28;20035;-43
2022/05/29 01:00:59;;;;;;;4.35;1.92;;;11.10;99.90;;;;;;4949389;29;20031;-43
2022/05/29 01:03:25;;;;;;;4.68;1.70;;;11.10;99.90;;;;;;4948568;29;20039;-43
2022/05/29 01:05:50;;;;;;;4.57;1.70;;;11.10;99.90;;;;;;4948030;29;20053;-43
2022/05/29 01:08:27;;;;;;;8.13;2.13;;;11.10;99.90;;;;;;4948456;28;20098;-43
2022/05/29 01:10:58;;;;;;;2.65;1.50;;;11.10;99.90;;;;;;4949447;28;20039;-43
2022/05/29 01:13:43;;;;;;;4.28;1.88;;;11.00;99.90;;;;;;4947672;29;20035;-43
2022/05/29 01:16:23;;;;;;;8.18;2.42;;;11.00;99.90;;;;;;4949212;29;20037;-43
2022/05/29 01:19:20;;;;;;;2.75;1.90;;;11.00;99.90;;;;;;4948616;29;20110;-43
2022/05/29 01:22:15;;;;;;;3.97;1.80;;;11.00;99.90;;;;;;4930336;29;20535;-43
2022/05/29 01:25:02;;;;;;;2.90;1.90;;;10.90;99.90;;;;;;4947652;29;20609;-43
2022/05/29 01:27:59;;;;;;;3.70;2.13;;;10.90;99.90;;;;;;4947815;29;20118;-43
2022/05/29 01:30:29;;;;;;;3.95;1.98;;;10.90;99.90;;;;;;4948579;29;20277;-43
2022/05/29 01:33:08;;;;;;;10.95;3.42;;;10.90;99.90;;;;;;4950001;28;20101;-43
2022/05/29 01:36:06;;;;;;;4.88;2.15;;;10.90;99.90;;;;;;4948169;28;20054;-43
2022/05/29 01:38:43;;;;;;;4.05;1.83;;;11.00;99.90;;;;;;4948091;29;20027;-43
2022/05/29 01:41:23;;;;;;;4.93;1.75;;;11.00;99.90;;;;;;4948017;28;20438;-44
2022/05/29 01:44:03;;;;;;;3.97;2.10;;;11.00;99.90;;;;;;4947693;28;20038;-44
2022/05/29 01:46:33;;;;;;;4.63;2.10;;;10.90;99.90;;;;;;4947948;28;20111;-43
2022/05/29 01:49:13;;;;;;;6.63;1.83;;;10.90;99.90;;;;;;4947420;28;20019;-43
2022/05/29 01:51:47;;;;;;;4.68;2.17;;;10.90;99.90;;;;;;4947838;28;20146;-43
2022/05/29 01:54:32;;;;;;;5.20;2.58;;;10.90;99.90;;;;;;4947785;28;20107;-43
2022/05/29 01:57:04;;;;;;;6.20;2.10;;;10.90;99.90;;;;;;4948380;28;20039;-43
2022/05/29 01:59:39;;;;;;;6.85;2.30;;;10.90;99.90;;;;;;4947404;28;20041;-43
2022/05/29 02:02:09;;;;;;;6.47;2.20;;;10.90;99.90;;;;;;4947841;28;20105;-43
2022/05/29 02:04:39;;;;;;;6.15;2.30;;;10.90;99.90;;;;;;4947538;29;20038;-43
2022/05/29 02:10:14;;;;;;;5.70;2.35;;;10.90;99.90;;;;;;4947584;29;20061;-43
2022/05/29 02:12:47;;;;;;;5.57;2.40;;;10.90;99.90;;;;;;4948006;28;20049;-43
2022/05/29 02:15:14;;;;;;;;;;;10.90;99.90;;;;;;4948434;29;20055;-43
2022/05/29 02:17:44;;;;;;;3.70;1.98;;;10.90;99.90;;;;;;4947044;28;19911;-43
2022/05/29 02:20:20;;;;;;;4.28;2.70;;;10.80;99.90;;;;;;4947453;28;20336;-44
2022/05/29 02:22:48;;;;;;;5.05;2.47;;;10.80;99.90;;;;;;4947018;28;20042;-43
2022/05/29 02:25:22;;;;;;;8.38;2.75;;;10.80;99.90;;;;;;4947472;29;20062;-43
2022/05/29 02:28:21;;;;;;;3.75;1.90;;;10.80;99.90;;;;;;4947556;28;20451;-44
2022/05/29 02:30:52;;;;;;;7.47;2.78;;;10.80;99.90;;;;;;4941835;29;20500;-44
2022/05/29 02:33:24;;;;;;;4.15;1.95;;;10.70;99.90;;;;;;4947260;29;20019;-44
2022/05/29 02:36:23;;;;;;;4.97;2.20;;;10.70;99.90;;;;;;4947846;28;20447;-44
2022/05/29 02:39:15;;;;;;;4.72;2.35;;;10.60;99.90;;;;;;4947550;28;20438;-44
2022/05/29 02:42:21;;;;;;;7.32;2.03;;;10.60;99.90;;;;;;4946990;28;20024;-44
2022/05/29 02:44:55;;;;;;;4.20;2.13;;;10.50;99.90;;;;;;4927367;29;20036;-43
2022/05/29 02:47:49;;;;;;;3.40;2.00;;;10.40;99.90;;;;;;4947006;29;20027;-43
2022/05/29 02:50:32;;;;;;;3.60;1.83;;;10.40;99.90;;;;;;4947242;29;20141;-43
2022/05/29 02:53:02;;;;;;;2.17;1.42;;;10.30;99.90;;;;;;4944816;29;20039;-43
2022/05/29 02:55:28;;;;;;;4.57;2.05;;;10.30;99.90;;;;;;4947728;28;20118;-43
2022/05/29 02:57:59;;;;;;;2.20;1.40;;;10.30;99.90;;;;;;4951044;29;20107;-44
2022/05/29 03:00:26;;;;;;;3.92;1.40;;;10.40;99.90;;;;;;4950727;29;20031;-43
2022/05/29 03:03:13;;;;;;;4.80;1.67;;;10.30;99.90;;;;;;4950804;29;20043;-42
2022/05/29 03:05:49;;;;;;;4.30;1.50;;;10.40;99.90;;;;;;4950662;29;20509;-43
2022/05/29 03:08:45;;;;;;;2.50;1.40;;;10.30;99.90;;;;;;4950408;29;20043;-43
2022/05/29 03:11:35;;;;;;;5.50;1.65;;;10.30;99.90;;;;;;4951460;28;20028;-43
2022/05/29 03:14:14;;;;;;;3.92;1.63;;;10.30;99.90;;;;;;4941090;29;20070;-43
2022/05/29 03:16:54;;;;;;;3.75;1.55;;;10.40;99.90;;;;;;4950236;29;20032;-43
2022/05/29 03:19:43;;;;;;;3.72;2.00;;;10.40;99.90;;;;;;4949723;28;20505;-43
2022/05/29 03:22:37;;;;;;;4.20;1.92;;;10.40;99.90;;;;;;4950611;28;20509;-44
2022/05/29 03:25:17;;;;;;;2.72;1.63;;;10.40;99.90;;;;;;4948988;29;20047;-43
2022/05/29 03:27:48;;;;;;;6.07;2.47;;;10.40;99.90;;;;;;4949414;28;20027;-43
2022/05/29 03:30:18;;;;;;;5.05;1.80;;;10.50;99.90;;;;;;4950458;28;20031;-43
2022/05/29 03:32:46;;;;;;;4.82;1.92;;;10.50;99.90;;;;;;4949955;28;20041;-43
2022/05/29 03:35:36;;;;;;;4.32;1.80;;;10.50;99.90;;;;;;4950442;29;20106;-43
2022/05/29 03:38:03;;;;;;;5.75;2.42;;;10.50;99.90;;;;;;4950533;28;20019;-43
2022/05/29 03:40:32;;;;;;;3.53;1.67;;;10.50;99.90;;;;;;4949658;28;20150;-43
2022/05/29 03:42:58;;;;;;;6.07;2.00;;;10.50;99.90;;;;;;4950578;28;20023;-43
2022/05/29 03:45:24;;;;;;;5.93;2.17;;;10.50;99.90;;;;;;4950136;29;20023;-43
2022/05/29 03:47:50;;;;;;;4.45;2.00;;;10.50;99.90;;;;;;4949683;28;20414;-43
2022/05/29 03:50:19;;;;;;;4.18;2.05;;;10.50;99.90;;;;;;4949870;28;20110;-43
2022/05/29 03:52:45;;;;;;;4.68;2.28;;;10.60;99.90;;;;;;4949778;28;20480;-43
2022/05/29 03:55:13;;;;;;;4.85;2.05;;;10.60;99.90;;;;;;4949884;29;20019;-44
2022/05/29 03:57:38;;;;;;;4.93;2.03;;;10.60;99.90;;;;;;4950090;28;20033;-43
2022/05/29 04:00:07;;;;;;;4.35;2.53;;;10.60;99.90;;;;;;4950656;28;20023;-44
2022/05/29 04:02:32;;;;;;;8.52;2.63;;;10.60;99.90;;;;;;4948750;28;20403;-43
2022/05/29 04:04:58;;;;;;;5.18;2.90;;;10.60;99.90;;;;;;4949901;29;20035;-43
2022/05/29 04:12:53;;;;;;;3.30;2.00;;;10.70;99.90;;;;;;4950663;29;20086;-43
2022/05/29 04:15:19;;;;;;;4.85;2.55;;;10.70;99.90;;;;;;4948930;29;20475;-43
2022/05/29 04:17:44;;;;;;;5.38;2.45;;;10.70;99.90;;;;;;4949707;29;20086;-43
2022/05/29 04:20:10;;;;;;;4.07;2.10;;;10.70;99.90;;;;;;4950154;29;20049;-43
2022/05/29 04:22:36;;;;;;;4.50;2.13;;;10.70;99.90;;;;;;4948516;28;20023;-43
2022/05/29 04:25:01;;;;;;;7.63;2.10;;;10.70;99.90;;;;;;4949335;29;20497;-43
2022/05/29 04:27:27;;;;;;;4.50;2.00;;;10.80;99.90;;;;;;4949722;29;20035;-43
2022/05/29 04:29:52;;;;;;;4.35;2.00;;;10.80;99.90;;;;;;4949079;29;20051;-43
2022/05/29 04:35:03;;;;;;;5.13;2.33;;;10.80;99.90;;;;;;4950129;29;20366;-43
2022/05/29 04:37:29;;;;;;;6.45;2.40;;;10.80;99.90;;;;;;4948690;29;20179;-43
2022/05/29 04:39:55;;;;;;;4.55;2.22;;;10.80;99.90;;;;;;4949608;28;20034;-43
2022/05/29 04:42:23;;;;;;;3.03;2.53;;;10.80;99.90;;;;;;4949769;29;20054;-43
2022/05/29 04:44:49;;;;;;;4.25;1.63;;;10.80;99.90;;;;;;4948209;29;20515;-43
2022/05/29 04:47:14;;;;;;;3.80;2.00;;;10.80;99.90;;;;;;4949592;29;20035;-43
2022/05/29 04:49:40;;;;;;;4.05;1.83;;;10.80;99.90;;;;;;4949409;29;20078;-43
2022/05/29 04:52:06;;;;;;;2.20;1.52;;;10.80;99.90;;;;;;4947900;29;20093;-43
2022/05/29 04:54:34;;;;;;;5.05;2.13;;;10.70;99.90;;;;;;4948431;28;20019;-43
2022/05/29 04:56:59;;;;;;;7.07;2.30;;;10.70;99.90;;;;;;4949148;28;20454;-43
2022/05/29 04:59:25;;;;;;;3.00;1.67;;;10.70;99.90;;;;;;4947981;29;20030;-44
2022/05/29 05:01:50;;;;;;;3.70;1.95;;;10.70;99.90;;;;;;4949158;28;20498;-43
2022/05/29 05:04:16;;;;;;;5.20;1.95;;;10.80;99.90;;;;;;4949290;29;20077;-43
2022/05/29 05:06:41;;;;;;;3.33;1.40;;;10.90;99.90;;;;;;4947931;28;20039;-43
2022/05/29 05:09:07;;;;;;;1.98;1.35;;;11.00;99.90;;;;;;4949370;29;20027;-44
2022/05/29 05:11:32;;;;;;;4.30;1.70;;;11.10;99.90;;;;;;4947331;29;20035;-43
2022/05/29 05:13:58;;;;;;;1.90;1.42;;;11.10;99.90;;;;;;4949101;28;20030;-43
2022/05/29 05:16:24;;;;;;;1.83;1.20;;;11.20;99.90;;;;;;4947831;28;20574;-43
2022/05/29 05:18:49;;;;;;;4.65;1.67;;;11.20;99.90;;;;;;4947913;28;20070;-43
2022/05/29 05:21:15;;;;;;;6.22;1.65;;;11.30;99.90;;;;;;4948195;29;20027;-43
2022/05/29 05:23:40;;;;;;;3.30;1.15;;;11.30;99.90;;;;;;4948318;28;20502;-43
2022/05/29 05:26:11;;;;;;;3.40;1.63;;;11.30;99.90;;;;;;4947739;28;20042;-44
2022/05/29 05:28:36;;;;;;;3.13;1.45;;;11.40;99.90;;;;;;4947758;29;20046;-43
2022/05/29 05:31:02;;;;;;;4.20;1.33;;;11.40;99.90;;;;;;4948769;28;20031;-45
2022/05/29 05:33:27;;;;;;;3.50;1.65;;;11.40;99.90;;;;;;4947543;29;20509;-44
2022/05/29 05:35:53;;;;;;;4.45;1.67;;;11.30;99.90;;;;;;4948386;29;20023;-44
2022/05/29 05:38:18;;;;;;;4.32;1.63;;;11.30;99.90;;;;;;4948558;29;20118;-43
2022/05/29 05:40:44;;;;;;;3.35;1.40;;;11.20;99.90;;;;;;4947428;29;20054;-43
2022/05/29 05:43:10;;;;;;;4.25;1.52;;;11.20;99.90;;;;;;4947835;28;20053;-43
2022/05/29 05:45:39;;;;;;;4.47;1.45;;;11.10;99.90;;;;;;4948171;29;20486;-43
2022/05/29 05:48:05;;;;;;;6.00;1.70;;;11.10;99.90;;;;;;4947249;29;20029;-43
2022/05/29 05:50:31;;;;;;;2.58;1.40;;;11.10;99.90;;;;;;4947908;28;20031;-43
2022/05/29 05:52:56;;;;;;;3.15;1.55;;;11.10;99.90;;;;;;4948665;28;20043;-43
2022/05/29 05:55:22;;;;;;;2.50;1.35;;;11.10;99.90;;;;;;4947066;29;20034;-43
2022/05/29 05:57:47;;;;;;;2.35;1.33;;;11.20;99.90;;;;;;4947673;29;20035;-42
2022/05/29 06:00:14;;;;;;;1.88;1.40;;;11.30;99.90;;;;;;4947995;29;20039;-42
2022/05/29 06:02:43;;;;;;;3.20;1.40;;;11.30;99.90;;;;;;4946891;28;20019;-43
2022/05/29 06:05:10;;;;;;;4.53;1.48;;;11.40;99.90;;;;;;4947936;28;20114;-43
2022/05/29 06:07:36;;;;;;;2.55;1.30;;;11.40;99.90;;;;;;4947575;28;20023;-44
2022/05/29 06:10:02;;;;;;;3.90;1.63;;;11.50;99.90;;;;;;4947545;29;20031;-43
2022/05/29 06:12:27;;;;;;;2.40;1.30;;;11.60;99.90;;;;;;4946636;29;20043;-44
2022/05/29 06:14:54;;;;;;;2.20;1.30;;;11.70;99.90;;;;;;4947396;29;20035;-43
2022/05/29 06:17:20;;;;;;;3.53;1.42;;;11.80;99.90;;;;;;4947272;28;20074;-44
2022/05/29 06:19:46;;;;;;;4.75;1.40;;;11.80;99.90;;;;;;4947552;29;20039;-44
2022/05/29 06:22:11;;;;;;;3.72;1.63;;;11.80;99.90;;;;;;4947297;28;20086;-43
2022/05/29 06:24:37;;;;;;;2.20;1.40;;;11.90;99.90;;;;;;4947251;29;20034;-46
2022/05/29 06:27:02;;;;;;;2.40;1.13;;;12.00;99.90;;;;;;4947814;29;20554;-43
2022/05/29 06:29:28;;;;;;;2.72;1.60;;;12.10;99.90;;;;;;4946364;28;20031;-43
2022/05/29 06:32:03;;;;;;;2.15;0.93;;;12.20;99.90;;;;;;4951798;29;20027;-43
2022/05/29 06:34:29;;;;;;;1.55;1.27;;;12.20;99.90;;;;;;4951020;28;20486;-44
2022/05/29 06:36:55;;;;;;;3.13;1.40;;;12.30;99.90;;;;;;4950637;28;20811;-43
2022/05/29 06:39:22;;;;;;;3.42;1.10;;;12.30;99.90;;;;;;4951131;29;20031;-42
2022/05/29 06:41:48;;;;;;;1.88;1.10;;;12.40;99.90;;;;;;4951655;29;20351;-43
2022/05/29 06:44:13;;;;;;;1.98;1.27;;;12.40;99.90;;;;;;4950491;29;20514;-43
2022/05/29 06:46:39;;;;;;;1.73;1.00;;;12.40;99.90;;;;;;4951103;29;20159;-44
2022/05/29 06:49:04;;;;;;;4.28;1.27;;;12.40;99.90;;;;;;4951464;29;20031;-43
2022/05/29 06:51:30;;;;;;;3.15;1.50;;;12.30;99.90;;;;;;4949740;29;20259;-44
2022/05/29 06:53:56;;;;;;;2.75;1.20;;;12.30;99.90;;;;;;4951330;28;20097;-44
2022/05/29 06:56:23;;;;;;;2.90;1.50;;;12.20;99.90;;;;;;4949417;29;20471;-44
2022/05/29 06:58:53;;;;;;;1.98;1.50;;;12.10;99.90;;;;;;4948238;29;20031;-44
2022/05/29 07:07:00;;;;;;;1.77;1.15;;;12.30;99.90;;;;;;4950331;29;20050;-43
2022/05/29 07:09:42;;;;;;;2.28;1.10;;;12.30;99.90;;;;;;4949919;29;20027;-44
2022/05/29 07:12:22;;;;;;;3.22;1.23;;;12.30;99.90;;;;;;4940292;29;20058;-43
2022/05/29 07:14:56;;;;;;;3.13;1.10;;;12.30;99.90;;;;;;4950202;28;20015;-43
2022/05/29 07:17:22;;;;;;;2.42;1.30;;;12.20;99.90;;;;;;4949829;28;20078;-44
2022/05/29 07:19:48;;;;;;;2.83;1.50;;;12.20;99.90;;;;;;4949017;29;20019;-44
2022/05/29 07:22:14;;;;;;;3.33;1.30;;;12.20;99.90;;;;;;4939100;29;20015;-44
2022/05/29 07:24:40;;;;;;;4.13;1.60;;;12.20;99.90;;;;;;4949416;29;20391;-44
2022/05/29 07:27:06;;;;;;;2.78;1.85;;;12.20;99.90;;;;;;4948519;28;20051;-44
2022/05/29 07:29:32;;;;;;;2.47;1.20;;;12.20;99.90;;;;;;4949231;28;20027;-43
2022/05/29 07:31:58;;;;;;;2.63;1.20;;;12.20;99.90;;;;;;4949633;29;20118;-44
2022/05/29 07:34:27;;;;;;;2.70;1.00;;;12.20;99.90;;;;;;4949233;29;20620;-43
2022/05/29 07:36:55;;;;;;;3.28;1.15;;;12.20;99.90;;;;;;4949492;28;20074;-44
2022/05/29 07:39:21;;;;;;;3.10;0.90;;;12.20;99.90;;;;;;4948711;28;20698;-44
2022/05/29 07:44:30;;;;;;;3.90;1.20;;;12.30;99.90;;;;;;4931187;29;20119;-44
2022/05/29 07:46:56;;;;;;;3.55;1.30;;;12.30;99.90;;;;;;4945689;29;20098;-44
2022/05/29 07:49:22;;;;;;;2.75;1.42;;;12.40;99.90;;;;;;4950233;29;20551;-43
2022/05/29 07:51:49;;;;;;;1.88;1.00;;;12.40;99.90;;;;;;4949591;28;20184;-44
2022/05/29 07:54:14;;;;;;;2.22;1.80;;;12.50;99.90;;;;;;4948720;29;20592;-44
2022/05/29 07:56:40;;;;;;;1.88;1.40;;;12.50;99.90;;;;;;4950001;29;20031;-43
2022/05/29 07:59:05;;;;;;;2.08;1.00;;;12.60;99.90;;;;;;4950246;29;20386;-43
2022/05/29 08:01:31;;;;;;;1.83;1.10;;;12.60;99.90;;;;;;4948280;29;20395;-44
2022/05/29 08:03:57;;;;;;;2.92;0.90;;;12.60;99.90;;;;;;4949729;29;20031;-44
2022/05/29 08:06:22;;;;;;;3.70;1.20;;;12.60;99.90;;;;;;4949040;29;20038;-45
2022/05/29 08:08:48;;;;;;;1.75;1.08;;;12.60;99.90;;;;;;4948441;28;20420;-44
2022/05/29 08:11:17;;;;;;;5.72;2.00;;;12.60;99.90;;;;;;4949145;28;20383;-44
2022/05/29 08:13:43;;;;;;;3.65;1.27;;;12.60;99.90;;;;;;4948527;28;20032;-43
2022/05/29 08:16:08;;;;;;;2.55;1.60;;;12.80;99.90;;;;;;4948399;28;20462;-43
2022/05/29 08:18:34;;;;;;;2.45;1.23;;;12.80;99.90;;;;;;4948911;29;20067;-43
2022/05/29 08:20:59;;;;;;;5.05;1.83;;;12.90;99.90;;;;;;4949222;29;20033;-44
2022/05/29 08:23:26;;;;;;;4.03;1.38;;;12.90;99.90;;;;;;4947563;29;20379;-44
2022/05/29 08:31:12;;;;;;;1.45;1.00;;;12.80;99.90;;;;;;4948499;28;20051;-43
2022/05/29 08:33:38;;;;;;;3.50;1.15;;;12.90;99.90;;;;;;4948415;28;20361;-43
2022/05/29 08:36:15;;;;;;;1.42;0.90;;;13.00;99.90;;;;;;4948285;28;20031;-43
2022/05/29 08:38:47;;;;;;;2.22;1.30;;;13.00;99.90;;;;;;4948683;28;20025;-44
2022/05/29 08:41:18;;;;;;;3.15;1.30;;;13.10;99.90;;;;;;4951162;29;20060;-43
2022/05/29 08:44:04;;;;;;;1.63;1.10;;;13.10;99.90;;;;;;4948091;29;20491;-44
2022/05/29 08:46:44;;;;;;;2.72;1.25;;;13.20;99.90;;;;;;4930626;29;20344;-43
2022/05/29 08:49:15;;;;;;;4.53;1.20;;;13.40;99.90;;;;;;4946595;29;20035;-43
2022/05/29 08:51:46;;;;;;;4.70;1.25;;;13.50;99.90;;;;;;4948802;29;20082;-43
2022/05/29 08:54:16;;;;;;;2.95;1.48;;;13.50;99.90;;;;;;4945814;28;20045;-43
2022/05/29 08:56:42;;;;;;;3.13;1.25;;;13.40;99.90;;;;;;4948533;28;20086;-44
2022/05/29 08:59:36;;;;;;;2.28;1.10;;;13.50;99.90;;;;;;4949090;29;20113;-44
2022/05/29 09:02:43;;;;;;;5.03;2.17;;;13.50;99.90;;;;;;4929437;29;20095;-44
2022/05/29 09:05:34;;;;;;;2.65;1.23;;;13.50;99.90;;;;;;4947368;29;20062;-43
2022/05/29 09:08:06;;;;;;;4.32;1.10;;;13.50;99.90;;;;;;4931890;29;20023;-44
2022/05/29 09:10:44;;;;;;;4.55;1.10;;;13.50;99.90;;;;;;4948353;29;20035;-44
2022/05/29 09:13:39;;;;;;;3.10;1.25;;;13.50;99.90;;;;;;4948236;29;20046;-44
2022/05/29 09:16:18;;;;;;;1.58;0.90;;;13.50;99.90;;;;;;4938653;29;20034;-42
2022/05/29 09:19:02;;;;;;;2.95;1.00;;;13.60;99.90;;;;;;4948027;28;20023;-43
2022/05/29 09:21:40;;;;;;;2.35;1.10;;;13.70;99.90;;;;;;4939488;29;20050;-43
2022/05/29 09:24:13;;;;;;;2.22;0.90;;;13.90;99.90;;;;;;4948740;28;20092;-44
2022/05/29 09:26:39;;;;;;;1.98;0.90;;;14.00;99.90;;;;;;4947896;28;20058;-44
2022/05/29 09:29:06;;;;;;;3.40;1.02;;;14.10;99.90;;;;;;4948703;28;20467;-43
2022/05/29 09:31:33;;;;;;;3.50;1.20;;;14.20;99.90;;;;;;4947771;28;20556;-44
2022/05/29 09:33:59;;;;;;;2.55;0.90;;;14.30;99.90;;;;;;4947899;28;20478;-44
2022/05/29 09:36:34;;;;;;;4.05;1.10;;;14.40;99.90;;;;;;4947602;28;20082;-44
2022/05/29 09:39:23;;;;;;;1.90;1.08;;;14.40;99.90;;;;;;4947226;29;20215;-44
2022/05/29 09:42:14;;;;;;;4.05;1.13;;;14.50;99.90;;;;;;4947043;29;20437;-44
2022/05/29 09:45:23;;;;;;;2.80;0.90;;;14.60;99.90;;;;;;4947164;28;20038;-44
2022/05/29 09:50:44;;;;;;;4.05;1.30;;;14.50;99.90;;;;;;4946283;29;20553;-44
2022/05/29 09:53:17;;;;;;;3.92;1.17;;;14.60;99.90;;;;;;4947300;28;20046;-43
2022/05/29 09:56:02;;;;;;;2.95;1.10;;;14.70;99.90;;;;;;4948194;29;20563;-44
2022/05/29 09:58:51;;;;;;;3.85;1.30;;;14.70;99.90;;;;;;4947749;28;20027;-44
2022/05/29 10:01:32;;;;;;;2.72;1.02;;;14.70;99.90;;;;;;4946657;29;20138;-44
2022/05/29 10:04:00;;;;;;;3.53;1.00;;;14.80;99.90;;;;;;4948014;28;20035;-43
2022/05/29 10:06:58;;;;;;;2.50;1.27;;;14.90;99.90;;;;;;4947055;28;20122;-44
2022/05/29 10:09:27;;;;;;;3.95;0.93;;;14.90;99.90;;;;;;4924237;29;20067;-44
2022/05/29 10:12:14;;;;;;;3.83;1.23;;;15.00;99.90;;;;;;4944538;29;20035;-44
2022/05/29 10:14:44;;;;;;;2.38;1.13;;;15.00;99.90;;;;;;4947022;28;20378;-44
2022/05/29 10:17:35;;;;;;;4.03;1.20;;;14.90;99.90;;;;;;4947997;29;20046;-44
2022/05/29 10:20:01;;;;;;;4.03;1.30;;;14.80;99.90;;;;;;4948035;28;20153;-43
2022/05/29 10:22:31;;;;;;;3.83;0.95;;;14.70;99.90;;;;;;4943026;28;20555;-44
2022/05/29 10:24:58;;;;;;;5.22;1.02;;;14.80;99.90;;;;;;4947485;28;20395;-44
2022/05/29 10:27:35;;;;;;;3.95;1.55;;;14.90;99.90;;;;;;4946636;28;20142;-43
2022/05/29 10:30:06;;;;;;;4.60;1.40;;;15.00;99.90;;;;;;4944699;28;20042;-45
2022/05/29 10:32:35;;;;;;;6.07;1.50;;;15.10;99.90;;;;;;4945966;28;20043;-43
2022/05/29 10:35:32;;;;;;;2.63;1.00;;;15.10;99.90;;;;;;4947681;28;20027;-43
2022/05/29 10:38:24;;;;;;;2.60;0.90;;;14.90;99.90;;;;;;4947835;28;20075;-44
2022/05/29 10:40:53;;;;;;;4.28;1.50;;;14.80;99.90;;;;;;4947736;29;20035;-43
2022/05/29 10:43:47;;;;;;;3.58;1.20;;;14.80;99.90;;;;;;4945200;28;20487;-44
2022/05/29 10:46:35;;;;;;;4.50;1.30;;;14.70;99.90;;;;;;4947092;29;20035;-44
2022/05/29 10:49:34;;;;;;;2.85;0.90;;;14.50;99.90;;;;;;4946652;29;20035;-43
2022/05/29 10:52:08;;;;;;;3.17;0.95;;;14.50;99.90;;;;;;4947332;28;20044;-44
2022/05/29 10:54:52;;;;;;;3.55;1.15;;;14.60;99.90;;;;;;4947159;28;20360;-44
2022/05/29 10:57:49;;;;;;;4.60;1.10;;;14.70;99.90;;;;;;4946546;29;20330;-43
2022/05/29 11:00:31;;;;;;;3.70;1.00;;;14.70;99.90;;;;;;4945703;28;20039;-43
2022/05/29 11:03:33;;;;;;;4.13;1.27;;;14.80;99.90;;;;;;4946776;29;20027;-44
2022/05/29 11:06:26;;;;;;;3.13;1.08;;;14.90;99.90;;;;;;4948044;28;20034;-44
2022/05/29 11:09:08;;;;;;;5.38;1.30;;;15.00;99.90;;;;;;4945949;29;20035;-44
2022/05/29 11:11:43;;;;;;;2.25;0.88;;;15.10;99.90;;;;;;4945203;29;20038;-44
2022/05/29 11:14:43;;;;;;;4.25;1.38;;;15.30;99.90;;;;;;4947444;29;20430;-45
2022/05/29 11:17:27;;;;;;;3.67;1.35;;;15.40;99.70;;;;;;4945432;28;20098;-44
2022/05/29 11:20:13;;;;;;;3.75;1.00;;;15.40;99.50;;;;;;4949055;29;20019;-44
2022/05/29 11:22:48;;;;;;;4.60;1.20;;;15.50;99.10;;;;;;4950598;29;20039;-44
2022/05/29 11:25:47;;;;;;;3.65;1.73;;;15.60;99.20;;;;;;4949874;29;20485;-44
2022/05/29 11:28:30;;;;;;;4.72;1.45;;;15.60;99.10;;;;;;4950938;29;20458;-44
2022/05/29 11:31:02;;;;;;;2.58;1.05;;;15.70;98.90;;;;;;4951488;28;20034;-44
2022/05/29 11:33:57;;;;;;;3.47;1.02;;;15.70;98.70;;;;;;4949988;28;20035;-43
2022/05/29 11:36:51;;;;;;;5.28;1.27;;;15.70;98.70;;;;;;4950790;29;20463;-45
2022/05/29 11:39:44;;;;;;;4.07;1.10;;;15.70;98.40;;;;;;4950214;29;20083;-44
2022/05/29 11:42:16;;;;;;;4.78;1.02;;;15.80;98.60;;;;;;4950834;28;20063;-44
2022/05/29 11:44:54;;;;;;;5.25;1.38;;;15.80;98.30;;;;;;4950411;28;20082;-45
2022/05/29 11:53:30;;;;;;;4.00;1.30;;;15.70;98.50;;;;;;4949550;29;20488;-44
2022/05/29 11:56:00;;;;;;;3.15;0.95;;;15.80;98.40;;;;;;4950732;29;20478;-44
2022/05/29 11:58:40;;;;;;;3.00;1.05;;;15.90;98.20;;;;;;4949451;28;20356;-45
2022/05/29 12:01:13;;;;;;;3.90;1.15;;;16.00;97.60;;;;;;4949739;28;20106;-45
2022/05/29 12:04:17;;;;;;;2.60;0.80;;;16.00;97.30;;;;;;4949763;28;20383;-44
2022/05/29 12:06:52;;;;;;;3.08;1.00;;;16.10;97.40;;;;;;4949048;28;20651;-44
2022/05/29 12:09:58;;;;;;;5.00;1.80;;;16.10;96.80;;;;;;4950384;28;20361;-43
2022/05/29 12:12:38;;;;;;;5.60;1.40;;;16.10;96.50;;;;;;4916994;29;20043;-46
2022/05/29 12:15:09;;;;;;;2.45;1.02;;;16.00;96.50;;;;;;4949071;28;20570;-44
2022/05/29 12:17:43;;;;;;;4.75;1.20;;;16.00;95.90;;;;;;4948980;28;20356;-43
2022/05/29 12:20:14;;;;;;;4.57;1.15;;;15.90;96.20;;;;;;4950353;28;20094;-43
2022/05/29 12:22:47;;;;;;;2.45;0.85;;;15.80;96.10;;;;;;4948864;28;20575;-44
2022/05/29 12:25:28;;;;;;;2.28;0.80;;;15.70;96.40;;;;;;4939934;28;20110;-44
2022/05/29 12:27:55;;;;;;;4.65;1.20;;;15.80;96.40;;;;;;4949043;28;20031;-44
2022/05/29 12:30:29;;;;;;;1.60;0.68;;;15.90;96.40;;;;;;4949418;29;20031;-45
2022/05/29 12:32:55;;;;;;;1.42;0.57;;;16.10;96.50;;;;;;4950289;28;20423;-44
2022/05/29 12:35:26;;;;;;;1.88;0.70;;;16.20;96.30;;;;;;4949107;28;20039;-44
2022/05/29 12:38:15;;;;;;;1.80;0.70;;;16.40;95.80;;;;;;4949934;28;20146;-43
2022/05/29 12:40:57;;;;;;;2.58;0.90;;;16.30;95.20;;;;;;4949054;28;20028;-44
2022/05/29 12:43:55;;;;;;;1.83;0.70;;;16.00;95.20;;;;;;4948752;28;20038;-44
2022/05/29 12:46:31;;;;;;;1.42;0.60;;;15.90;95.60;;;;;;4938073;29;20138;-44
2022/05/29 12:49:22;;;;;;;2.28;0.70;;;15.70;94.80;;;;;;4948769;29;20382;-44
2022/05/29 12:52:20;;;;;;;1.10;0.57;;;15.50;95.10;;;;;;4948720;29;20055;-44
2022/05/29 12:55:13;;;;;;;2.38;0.60;;;15.60;95.30;;;;;;4929588;29;20036;-44
2022/05/29 12:57:39;;;;;;;2.08;0.75;;;15.70;94.80;;;;;;4947053;28;20062;-44
2022/05/29 13:00:43;;;;;;;3.88;0.80;;;15.90;94.60;;;;;;4948763;28;20059;-45
2022/05/29 13:03:35;;;;;;;2.90;0.60;;;15.90;94.60;;;;;;4947512;29;20039;-43
2022/05/29 13:06:38;;;;;;;2.03;0.73;;;16.00;94.50;;;;;;4948882;28;20113;-44
2022/05/29 13:09:41;;;;;;;2.42;0.88;;;16.20;94.40;;;;;;4946820;28;20031;-45
2022/05/29 13:12:32;;;;;;;2.05;0.70;;;16.20;94.40;;;;;;4947641;29;20034;-44
2022/05/29 13:15:02;;;;;;;6.20;0.77;;;16.10;94.30;;;;;;4948747;28;20023;-44
2022/05/29 13:17:32;;;;;;;2.30;0.68;;;15.90;94.60;;;;;;4947008;28;20065;-44
2022/05/29 13:19:57;;;;;;;1.67;0.60;;;15.80;94.60;;;;;;4947207;29;20098;-44
2022/05/29 13:22:46;;;;;;;1.90;0.60;;;15.80;94.70;;;;;;4948455;29;20044;-44
2022/05/29 13:25:13;;;;;;;2.58;0.70;;;15.80;94.90;;;;;;4946177;29;20558;-44
2022/05/29 13:27:38;;;;;;;2.25;0.70;;;15.90;94.80;;;;;;4947727;28;20098;-44
2022/05/29 13:30:08;;;;;;;1.35;0.60;;;16.00;94.60;;;;;;4947903;29;20736;-43
2022/05/29 13:32:35;;;;;;;2.10;1.10;;;16.10;94.60;;;;;;4945184;29;20050;-44
2022/05/29 13:35:03;;;;;;;1.17;0.52;;;16.20;94.60;;;;;;4948455;28;20035;-44
2022/05/29 13:37:32;;;;;;;1.67;0.57;;;16.40;94.60;;;;;;4947564;28;20059;-44
2022/05/29 13:40:08;;;;;;;2.10;0.80;;;16.40;94.60;;;;;;4944369;28;20072;-44
2022/05/29 13:42:39;;;;;;;2.38;0.77;;;16.40;94.10;;;;;;4946942;29;20031;-44
2022/05/29 13:45:19;;;;;;;3.20;0.98;;;16.30;93.50;;;;;;4947608;28;20023;-45
2022/05/29 13:48:01;;;;;;;2.20;0.90;;;16.20;93.40;;;;;;4946250;29;20029;-44
2022/05/29 13:50:39;;;;;;;2.85;0.95;;;16.20;93.10;;;;;;4946078;29;20039;-44
2022/05/29 13:53:13;;;;;;;2.75;1.00;;;16.20;93.30;;;;;;4942653;28;20142;-44
2022/05/29 13:55:41;;;;;;;2.08;0.90;;;16.30;92.60;;;;;;4945390;29;20043;-44
2022/05/29 14:04:33;;;;;;;3.55;0.88;;;16.30;93.20;;;;;;4944100;29;20105;-44